Time;durP1;ratioP1;P1;durP2;ratioP2;P2;SDS_P1;SDS_P2;PMS_P1;PMS_P2;Temp;Humidity;BMP_temperature;BMP_pressure;BME280_temperature;BME280_humidity;BME280_pressure;Samples;Min_cycle;Max_cycle;Signal;HPM_P1;HPM_P2
2022/01/29 00:00:30;;;;;;;29.10;16.10;;;;;;;;;;5071583;28;20513;-80
2022/01/29 00:02:57;;;;;;;31.65;15.93;;;;;;;;;;5071411;28;20095;-80
2022/01/29 00:05:23;;;;;;;28.67;16.63;;;;;;;;;;5071518;28;20025;-80
2022/01/29 00:07:49;;;;;;;29.35;16.75;;;;;;;;;;5074104;28;20035;-80
2022/01/29 00:10:16;;;;;;;31.17;16.80;;;;;;;;;;5072093;28;20021;-80
2022/01/29 00:12:42;;;;;;;28.10;15.40;;;;;;;;;;5071319;28;20029;-80
2022/01/29 00:15:09;;;;;;;28.55;16.15;;;;;;;;;;5071201;28;20031;-80
2022/01/29 00:17:35;;;;;;;30.88;16.42;;;;;;;;;;5071249;28;20506;-80
2022/01/29 00:20:02;;;;;;;34.60;17.50;;;;;;;;;;5073396;28;20028;-80
2022/01/29 00:22:28;;;;;;;29.77;16.55;;;;;;;;;;5072790;28;20041;-80
2022/01/29 00:24:57;;;;;;;28.27;16.38;;;;;;;;;;5070991;28;20016;-80
2022/01/29 00:27:25;;;;;;;28.33;15.70;;;;;;;;;;5070834;28;20040;-80
2022/01/29 00:29:53;;;;;;;24.55;14.80;;;;;;;;;;5071051;28;20035;-80
2022/01/29 00:32:20;;;;;;;27.73;15.55;;;;;;;;;;5072421;28;20020;-80
2022/01/29 00:34:46;;;;;;;29.92;15.18;;;;;;;;;;5074045;28;20028;-80
2022/01/29 00:37:12;;;;;;;27.85;15.10;;;;;;;;;;5071172;28;20027;-80
2022/01/29 00:39:39;;;;;;;26.23;15.27;;;;;;;;;;5069828;28;20441;-81
2022/01/29 00:42:05;;;;;;;28.25;15.20;;;;;;;;;;5070679;28;20398;-80
2022/01/29 00:44:31;;;;;;;26.38;15.43;;;;;;;;;;5069843;28;20025;-80
2022/01/29 00:46:58;;;;;;;37.30;17.13;;;;;;;;;;5072903;28;20085;-80
2022/01/29 00:49:24;;;;;;;28.10;15.98;;;;;;;;;;5071899;28;20487;-80
2022/01/29 00:51:50;;;;;;;28.60;15.70;;;;;;;;;;5070554;28;20380;-80
2022/01/29 00:54:17;;;;;;;27.30;15.27;;;;;;;;;;5068872;28;20028;-81
2022/01/29 00:56:43;;;;;;;30.70;16.38;;;;;;;;;;5069240;28;20023;-80
2022/01/29 00:59:09;;;;;;;26.73;15.30;;;;;;;;;;5071302;28;20029;-80
2022/01/29 01:01:36;;;;;;;29.40;16.17;;;;;;;;;;5073024;28;20029;-80
2022/01/29 01:04:02;;;;;;;28.70;15.07;;;;;;;;;;5070384;28;20020;-80
2022/01/29 01:06:28;;;;;;;28.25;16.65;;;;;;;;;;5070187;28;20501;-80
2022/01/29 01:08:55;;;;;;;31.67;16.67;;;;;;;;;;5069806;28;20008;-80
2022/01/29 01:11:21;;;;;;;31.08;16.48;;;;;;;;;;5071594;28;20031;-80
2022/01/29 01:13:47;;;;;;;30.55;16.70;;;;;;;;;;5073593;28;20032;-80
2022/01/29 01:16:14;;;;;;;31.33;17.35;;;;;;;;;;5070674;28;20024;-80
2022/01/29 01:18:40;;;;;;;31.13;16.50;;;;;;;;;;5070236;28;20043;-80
2022/01/29 01:21:06;;;;;;;29.83;16.73;;;;;;;;;;5070018;28;20032;-80
2022/01/29 01:23:33;;;;;;;36.78;17.77;;;;;;;;;;5069793;28;20390;-80
2022/01/29 01:26:01;;;;;;;31.65;16.75;;;;;;;;;;5072219;28;20043;-80
2022/01/29 01:28:28;;;;;;;29.23;16.20;;;;;;;;;;5071339;28;20037;-80
2022/01/29 01:30:55;;;;;;;27.83;14.18;;;;;;;;;;5069848;28;20028;-80
2022/01/29 01:33:21;;;;;;;32.72;16.80;;;;;;;;;;5069716;28;20023;-80
2022/01/29 01:35:52;;;;;;;28.13;15.77;;;;;;;;;;5069895;28;20481;-80
2022/01/29 01:38:26;;;;;;;27.73;15.10;;;;;;;;;;5054528;28;20023;-80
2022/01/29 01:40:59;;;;;;;28.92;15.38;;;;;;;;;;5071714;28;20052;-80
2022/01/29 01:43:25;;;;;;;30.20;16.08;;;;;;;;;;5070752;28;20016;-80
2022/01/29 01:45:52;;;;;;;34.47;16.30;;;;;;;;;;5069403;28;20026;-80
2022/01/29 01:48:18;;;;;;;30.27;16.45;;;;;;;;;;5069386;28;20400;-80
2022/01/29 01:50:44;;;;;;;28.67;15.15;;;;;;;;;;5069483;28;20074;-80
2022/01/29 01:53:11;;;;;;;28.52;15.40;;;;;;;;;;5069970;28;20027;-81
2022/01/29 01:55:37;;;;;;;29.55;16.17;;;;;;;;;;5072456;28;20024;-80
2022/01/29 01:58:04;;;;;;;32.40;16.38;;;;;;;;;;5069409;28;20028;-80
2022/01/29 02:00:31;;;;;;;38.40;16.17;;;;;;;;;;5069372;28;20039;-81
2022/01/29 02:02:57;;;;;;;28.88;15.63;;;;;;;;;;5069422;28;20025;-81
2022/01/29 02:05:24;;;;;;;31.45;16.17;;;;;;;;;;5069301;28;20020;-80
2022/01/29 02:07:51;;;;;;;32.10;16.17;;;;;;;;;;5071412;28;20019;-80
2022/01/29 02:10:19;;;;;;;49.17;20.08;;;;;;;;;;5070267;28;20053;-80
2022/01/29 02:12:46;;;;;;;34.72;16.92;;;;;;;;;;5069065;28;20016;-80
2022/01/29 02:15:12;;;;;;;32.65;17.00;;;;;;;;;;5068986;28;20028;-81
2022/01/29 02:17:39;;;;;;;31.08;16.08;;;;;;;;;;5068959;28;20484;-81
2022/01/29 02:20:05;;;;;;;39.42;17.55;;;;;;;;;;5070543;28;20048;-81
2022/01/29 02:22:32;;;;;;;29.50;15.98;;;;;;;;;;5071092;28;20043;-80
2022/01/29 02:24:58;;;;;;;29.17;14.93;;;;;;;;;;5069053;28;20016;-81
2022/01/29 02:27:24;;;;;;;29.42;15.95;;;;;;;;;;5068717;28;20169;-80
2022/01/29 02:29:51;;;;;;;28.20;15.52;;;;;;;;;;5070518;28;20027;-80
2022/01/29 02:32:18;;;;;;;29.60;14.73;;;;;;;;;;5068864;28;20045;-80
2022/01/29 02:34:45;;;;;;;31.02;16.65;;;;;;;;;;5072045;28;20375;-81
2022/01/29 02:37:11;;;;;;;29.50;15.82;;;;;;;;;;5070388;28;20090;-80
2022/01/29 02:39:37;;;;;;;27.23;14.80;;;;;;;;;;5068742;28;20049;-80
2022/01/29 02:42:04;;;;;;;29.35;16.45;;;;;;;;;;5068621;28;20036;-80
2022/01/29 02:44:31;;;;;;;31.77;15.85;;;;;;;;;;5068816;28;20056;-81
2022/01/29 02:47:14;;;;;;;32.45;16.80;;;;;;;;;;5071107;28;20032;-81
2022/01/29 02:49:40;;;;;;;30.73;16.20;;;;;;;;;;5071935;28;20052;-80
2022/01/29 02:52:07;;;;;;;28.90;16.13;;;;;;;;;;5067533;28;20033;-80
2022/01/29 02:54:34;;;;;;;30.27;15.27;;;;;;;;;;5068696;28;20390;-80
2022/01/29 02:57:01;;;;;;;32.25;15.95;;;;;;;;;;5068561;28;20029;-80
2022/01/29 02:59:27;;;;;;;26.33;14.63;;;;;;;;;;5068765;28;20021;-81
2022/01/29 03:01:53;;;;;;;28.17;15.05;;;;;;;;;;5071150;28;20520;-80
2022/01/29 03:04:20;;;;;;;30.92;16.52;;;;;;;;;;5073262;28;20029;-80
2022/01/29 03:06:46;;;;;;;29.15;15.70;;;;;;;;;;5072889;28;20023;-80
2022/01/29 03:09:13;;;;;;;27.88;15.65;;;;;;;;;;5072718;28;20070;-80
2022/01/29 03:11:39;;;;;;;26.67;14.75;;;;;;;;;;5072492;28;20028;-80
2022/01/29 03:14:05;;;;;;;27.08;14.35;;;;;;;;;;5074018;28;20379;-80
2022/01/29 03:16:32;;;;;;;27.25;15.32;;;;;;;;;;5073546;28;20413;-80
2022/01/29 03:18:58;;;;;;;28.05;15.63;;;;;;;;;;5072283;28;20023;-80
2022/01/29 03:21:25;;;;;;;27.77;14.68;;;;;;;;;;5073889;28;20089;-80
2022/01/29 03:23:51;;;;;;;26.17;14.52;;;;;;;;;;5072263;28;20019;-80
2022/01/29 03:26:17;;;;;;;26.00;15.05;;;;;;;;;;5072165;28;20105;-80
2022/01/29 03:28:44;;;;;;;27.58;15.05;;;;;;;;;;5075543;28;20027;-80
2022/01/29 03:31:10;;;;;;;26.63;13.85;;;;;;;;;;5073890;28;20051;-81
2022/01/29 03:33:37;;;;;;;24.83;14.02;;;;;;;;;;5071627;28;20394;-81
2022/01/29 03:36:03;;;;;;;25.33;14.25;;;;;;;;;;5072012;28;20032;-80
2022/01/29 03:38:29;;;;;;;23.95;13.50;;;;;;;;;;5072113;28;20029;-80
2022/01/29 03:40:58;;;;;;;24.98;14.10;;;;;;;;;;5074138;28;20040;-81
2022/01/29 03:43:40;;;;;;;22.98;12.68;;;;;;;;;;5072951;28;20032;-80
2022/01/29 03:46:07;;;;;;;22.60;13.30;;;;;;;;;;5072083;28;20027;-80
2022/01/29 03:48:33;;;;;;;22.70;12.50;;;;;;;;;;5073221;28;20058;-80
2022/01/29 03:50:59;;;;;;;22.90;13.45;;;;;;;;;;5070385;28;20025;-81
2022/01/29 03:53:26;;;;;;;22.92;13.07;;;;;;;;;;5071989;28;20497;-80
2022/01/29 03:55:52;;;;;;;22.55;12.90;;;;;;;;;;5074098;28;20031;-81
2022/01/29 03:58:18;;;;;;;24.13;12.90;;;;;;;;;;5072696;28;20093;-80
2022/01/29 04:00:45;;;;;;;22.65;13.60;;;;;;;;;;5071484;28;20029;-81
2022/01/29 04:03:11;;;;;;;23.90;13.55;;;;;;;;;;5071303;28;20027;-80
2022/01/29 04:05:37;;;;;;;24.00;13.02;;;;;;;;;;5071824;28;20032;-80
2022/01/29 04:08:12;;;;;;;24.27;13.02;;;;;;;;;;5071551;28;20032;-80
2022/01/29 04:10:38;;;;;;;21.35;12.90;;;;;;;;;;5074590;28;20031;-80
2022/01/29 04:13:06;;;;;;;24.55;13.30;;;;;;;;;;5071154;28;20433;-80
2022/01/29 04:15:32;;;;;;;23.75;13.23;;;;;;;;;;5070441;28;20013;-80
2022/01/29 04:17:59;;;;;;;26.48;14.13;;;;;;;;;;5070903;28;20031;-81
2022/01/29 04:20:25;;;;;;;26.85;15.32;;;;;;;;;;5071488;28;20025;-81
2022/01/29 04:22:51;;;;;;;25.55;13.68;;;;;;;;;;5073569;28;20040;-80
2022/01/29 04:25:18;;;;;;;24.15;14.18;;;;;;;;;;5072259;28;20036;-80
2022/01/29 04:27:46;;;;;;;23.75;13.63;;;;;;;;;;5072302;28;20044;-81
2022/01/29 04:30:43;;;;;;;26.70;14.23;;;;;;;;;;5071319;28;20020;-81
2022/01/29 04:35:27;;;;;;;22.90;13.05;;;;;;;;;;5070918;28;20434;-81
2022/01/29 04:37:54;;;;;;;24.83;13.88;;;;;;;;;;5073359;28;20364;-81
2022/01/29 04:40:20;;;;;;;26.45;14.07;;;;;;;;;;5071847;28;20042;-81
2022/01/29 04:42:47;;;;;;;29.98;15.75;;;;;;;;;;5070701;28;20035;-81
2022/01/29 04:45:14;;;;;;;23.35;13.50;;;;;;;;;;5070819;28;20024;-80
2022/01/29 04:47:40;;;;;;;24.35;13.82;;;;;;;;;;5070610;28;20036;-81
2022/01/29 04:50:07;;;;;;;29.83;16.10;;;;;;;;;;5071873;28;20025;-80
2022/01/29 04:52:33;;;;;;;27.02;15.43;;;;;;;;;;5073027;28;20028;-80
2022/01/29 04:55:00;;;;;;;26.92;14.35;;;;;;;;;;5070573;28;20019;-81
2022/01/29 04:57:26;;;;;;;27.17;14.55;;;;;;;;;;5070570;28;20020;-80
2022/01/29 04:59:52;;;;;;;28.00;15.07;;;;;;;;;;5070362;28;20134;-80
2022/01/29 05:02:19;;;;;;;28.05;14.15;;;;;;;;;;5070004;28;20028;-81
2022/01/29 05:04:45;;;;;;;26.48;15.43;;;;;;;;;;5073556;28;20031;-81
2022/01/29 05:07:12;;;;;;;27.13;15.27;;;;;;;;;;5072287;28;20035;-81
2022/01/29 05:09:38;;;;;;;28.90;15.18;;;;;;;;;;5070216;28;20017;-80
2022/01/29 05:12:05;;;;;;;26.20;14.23;;;;;;;;;;5070573;28;20020;-81
2022/01/29 05:27:39;;;;;;;27.35;13.93;;;;;;;;;;5069643;28;20044;-81
2022/01/29 05:30:05;;;;;;;30.05;15.05;;;;;;;;;;5069520;28;20013;-80
2022/01/29 05:32:32;;;;;;;29.92;15.13;;;;;;;;;;5069871;28;20487;-81
2022/01/29 05:34:58;;;;;;;27.55;14.85;;;;;;;;;;5072034;28;20023;-80
2022/01/29 05:37:24;;;;;;;31.70;15.80;;;;;;;;;;5070909;28;20037;-80
2022/01/29 05:39:51;;;;;;;29.48;15.07;;;;;;;;;;5070061;28;20073;-81
2022/01/29 05:42:17;;;;;;;26.70;14.13;;;;;;;;;;5069500;28;20036;-80
2022/01/29 05:44:44;;;;;;;26.23;14.13;;;;;;;;;;5069541;28;20027;-80
2022/01/29 05:47:10;;;;;;;27.35;14.73;;;;;;;;;;5070396;28;20024;-81
2022/01/29 05:49:36;;;;;;;26.33;14.73;;;;;;;;;;5072361;28;20025;-80
2022/01/29 05:52:03;;;;;;;26.90;14.32;;;;;;;;;;5069673;28;20017;-80
2022/01/29 05:54:29;;;;;;;25.38;14.30;;;;;;;;;;5069544;28;20025;-80
2022/01/29 05:56:57;;;;;;;26.67;14.50;;;;;;;;;;5069262;28;20071;-80
2022/01/29 05:59:23;;;;;;;25.52;13.80;;;;;;;;;;5069077;28;20028;-80
2022/01/29 06:01:50;;;;;;;28.45;14.60;;;;;;;;;;5070660;28;20039;-80
2022/01/29 06:04:16;;;;;;;27.45;14.82;;;;;;;;;;5070180;28;20029;-81
2022/01/29 06:06:42;;;;;;;24.75;13.82;;;;;;;;;;5069289;28;20020;-80
2022/01/29 06:09:09;;;;;;;27.98;14.95;;;;;;;;;;5069049;28;20078;-80
2022/01/29 06:11:35;;;;;;;28.67;15.30;;;;;;;;;;5069206;28;20023;-80
2022/01/29 06:14:01;;;;;;;26.10;14.98;;;;;;;;;;5070700;28;20395;-80
2022/01/29 06:16:28;;;;;;;28.02;14.80;;;;;;;;;;5071037;28;20029;-81
2022/01/29 06:18:54;;;;;;;30.40;15.18;;;;;;;;;;5069045;28;20535;-81
2022/01/29 06:21:21;;;;;;;26.88;14.63;;;;;;;;;;5067680;28;20052;-81
2022/01/29 06:23:47;;;;;;;23.98;13.90;;;;;;;;;;5070487;28;20516;-80
2022/01/29 06:26:14;;;;;;;27.52;15.13;;;;;;;;;;5052109;28;20410;-80
2022/01/29 06:28:41;;;;;;;29.13;15.40;;;;;;;;;;5071843;28;20024;-80
2022/01/29 06:31:09;;;;;;;28.25;15.40;;;;;;;;;;5068992;28;20466;-81
2022/01/29 06:33:35;;;;;;;28.33;14.55;;;;;;;;;;5068774;28;20043;-80
2022/01/29 06:36:02;;;;;;;27.27;14.35;;;;;;;;;;5067592;28;20031;-80
2022/01/29 06:38:29;;;;;;;26.52;13.68;;;;;;;;;;5068343;28;20025;-80
2022/01/29 06:40:55;;;;;;;25.15;13.80;;;;;;;;;;5071323;28;20039;-80
2022/01/29 06:43:21;;;;;;;24.63;14.02;;;;;;;;;;5069386;28;20029;-81
2022/01/29 06:45:48;;;;;;;25.95;14.65;;;;;;;;;;5068693;28;20017;-81
2022/01/29 06:48:15;;;;;;;21.80;13.18;;;;;;;;;;5068694;28;20028;-80
2022/01/29 06:50:41;;;;;;;27.75;15.70;;;;;;;;;;5068708;28;20017;-80
2022/01/29 06:53:08;;;;;;;37.47;15.55;;;;;;;;;;5069848;28;20035;-80
2022/01/29 06:55:34;;;;;;;26.70;15.50;;;;;;;;;;5071434;28;20029;-80
2022/01/29 06:58:01;;;;;;;27.33;14.75;;;;;;;;;;5067227;28;20032;-81
2022/01/29 07:00:27;;;;;;;28.20;15.38;;;;;;;;;;5068683;28;20044;-80
2022/01/29 07:02:53;;;;;;;30.48;15.75;;;;;;;;;;5068680;28;20017;-80
2022/01/29 07:05:20;;;;;;;31.88;16.15;;;;;;;;;;5068508;28;20051;-81
2022/01/29 07:07:46;;;;;;;29.70;16.10;;;;;;;;;;5071683;28;20035;-81
2022/01/29 07:10:12;;;;;;;28.60;15.68;;;;;;;;;;5068768;28;20437;-81
2022/01/29 07:12:42;;;;;;;25.60;14.57;;;;;;;;;;5068196;28;20483;-81
2022/01/29 07:15:09;;;;;;;29.63;15.52;;;;;;;;;;5068472;28;20036;-81
2022/01/29 07:17:36;;;;;;;30.48;16.85;;;;;;;;;;5068701;28;20032;-80
2022/01/29 07:20:03;;;;;;;30.27;14.80;;;;;;;;;;5070611;28;20040;-80
2022/01/29 07:22:29;;;;;;;30.85;16.45;;;;;;;;;;5070092;28;20047;-80
2022/01/29 07:24:56;;;;;;;28.33;14.95;;;;;;;;;;5068371;28;20464;-80
2022/01/29 07:27:22;;;;;;;28.60;15.45;;;;;;;;;;5067937;28;20041;-80
2022/01/29 07:29:48;;;;;;;26.23;14.93;;;;;;;;;;5068327;28;20025;-80
2022/01/29 07:32:15;;;;;;;30.02;16.15;;;;;;;;;;5068717;28;20016;-81
2022/01/29 07:34:41;;;;;;;27.88;15.63;;;;;;;;;;5067541;28;20025;-81
2022/01/29 07:37:07;;;;;;;30.58;15.18;;;;;;;;;;5068331;28;20098;-80
2022/01/29 07:39:34;;;;;;;26.65;14.02;;;;;;;;;;5068322;28;20043;-80
2022/01/29 07:42:00;;;;;;;27.75;14.65;;;;;;;;;;5068934;28;20036;-81
2022/01/29 07:44:27;;;;;;;24.58;14.27;;;;;;;;;;5068398;28;20421;-80
2022/01/29 07:46:53;;;;;;;30.85;15.60;;;;;;;;;;5070622;28;20483;-80
2022/01/29 07:49:19;;;;;;;28.40;15.73;;;;;;;;;;5071737;28;20021;-81
2022/01/29 07:51:46;;;;;;;26.70;15.45;;;;;;;;;;5071787;28;20024;-80
2022/01/29 07:54:12;;;;;;;26.52;15.38;;;;;;;;;;5071330;28;20483;-80
2022/01/29 07:56:38;;;;;;;28.65;14.90;;;;;;;;;;5070458;28;20031;-80
2022/01/29 07:59:05;;;;;;;27.40;15.10;;;;;;;;;;5073171;28;20445;-80
2022/01/29 08:01:32;;;;;;;24.20;14.02;;;;;;;;;;5073426;28;20086;-80
2022/01/29 08:03:58;;;;;;;24.38;14.63;;;;;;;;;;5071522;28;20024;-80
2022/01/29 08:06:26;;;;;;;31.98;16.17;;;;;;;;;;5071478;28;20051;-80
2022/01/29 08:08:53;;;;;;;24.27;13.70;;;;;;;;;;5070950;28;20023;-81
2022/01/29 08:11:19;;;;;;;28.15;15.20;;;;;;;;;;5071407;28;20021;-81
2022/01/29 08:13:46;;;;;;;25.65;14.23;;;;;;;;;;5074726;28;20021;-80
2022/01/29 08:16:13;;;;;;;27.60;14.23;;;;;;;;;;5073140;28;20020;-80
2022/01/29 08:18:41;;;;;;;29.58;15.07;;;;;;;;;;5071453;28;20021;-80
2022/01/29 08:21:08;;;;;;;70.57;27.13;;;;;;;;;;5072357;28;20048;-80
2022/01/29 08:23:34;;;;;;;44.83;20.88;;;;;;;;;;5069889;28;20017;-80
2022/01/29 08:26:00;;;;;;;34.53;18.42;;;;;;;;;;5073306;28;20503;-81
2022/01/29 08:28:27;;;;;;;31.63;16.15;;;;;;;;;;5072581;28;20027;-81
2022/01/29 08:30:53;;;;;;;30.33;16.13;;;;;;;;;;5071248;28;20020;-80
2022/01/29 08:33:20;;;;;;;29.40;15.70;;;;;;;;;;5070928;28;20020;-80
2022/01/29 08:35:47;;;;;;;31.42;18.20;;;;;;;;;;5071156;28;20028;-80
2022/01/29 08:38:14;;;;;;;32.35;17.00;;;;;;;;;;5071152;28;20028;-81
2022/01/29 08:40:40;;;;;;;29.67;16.65;;;;;;;;;;5074021;28;20033;-80
2022/01/29 08:43:06;;;;;;;31.30;17.23;;;;;;;;;;5070807;28;20085;-80
2022/01/29 08:45:33;;;;;;;29.13;15.93;;;;;;;;;;5070798;28;20023;-80
2022/01/29 08:47:59;;;;;;;31.63;16.55;;;;;;;;;;5069446;28;20032;-80
2022/01/29 08:50:26;;;;;;;28.52;16.20;;;;;;;;;;5070637;28;20021;-80
2022/01/29 08:52:52;;;;;;;28.48;15.40;;;;;;;;;;5073033;28;20026;-81
2022/01/29 08:55:18;;;;;;;28.73;17.05;;;;;;;;;;5071700;28;20054;-80
2022/01/29 08:57:45;;;;;;;34.95;19.25;;;;;;;;;;5070434;28;20008;-80
2022/01/29 09:00:12;;;;;;;27.85;15.57;;;;;;;;;;5071085;28;20475;-80
2022/01/29 09:02:39;;;;;;;27.48;14.38;;;;;;;;;;5070522;28;20028;-80
2022/01/29 09:05:05;;;;;;;27.70;16.27;;;;;;;;;;5072471;28;20024;-81
2022/01/29 09:07:32;;;;;;;28.95;15.48;;;;;;;;;;5072089;28;20024;-80
2022/01/29 09:09:58;;;;;;;27.27;15.43;;;;;;;;;;5070111;28;20029;-80
2022/01/29 09:12:25;;;;;;;29.08;15.05;;;;;;;;;;5070333;28;20491;-80
2022/01/29 09:14:51;;;;;;;28.17;15.98;;;;;;;;;;5070167;28;20025;-80
2022/01/29 09:17:17;;;;;;;26.58;14.85;;;;;;;;;;5070390;28;20020;-80
2022/01/29 09:19:44;;;;;;;30.58;15.93;;;;;;;;;;5073363;28;20028;-80
2022/01/29 09:22:10;;;;;;;25.85;14.35;;;;;;;;;;5069479;28;20041;-80
2022/01/29 09:24:36;;;;;;;25.08;14.38;;;;;;;;;;5069914;28;20028;-80
2022/01/29 09:27:03;;;;;;;30.00;15.27;;;;;;;;;;5069765;28;20051;-80
2022/01/29 09:29:29;;;;;;;25.63;15.02;;;;;;;;;;5070103;28;20024;-80
2022/01/29 09:31:56;;;;;;;24.23;14.32;;;;;;;;;;5072217;28;20025;-80
2022/01/29 09:34:22;;;;;;;25.35;14.77;;;;;;;;;;5069578;28;20036;-80
2022/01/29 09:36:48;;;;;;;24.58;14.48;;;;;;;;;;5069335;28;20024;-80
2022/01/29 09:39:15;;;;;;;27.80;16.02;;;;;;;;;;5071032;28;20021;-80
2022/01/29 09:41:45;;;;;;;24.80;15.10;;;;;;;;;;5068494;28;20051;-80
2022/01/29 09:44:12;;;;;;;26.02;15.40;;;;;;;;;;5070598;28;20021;-80
2022/01/29 09:46:39;;;;;;;31.15;17.15;;;;;;;;;;5072471;28;20029;-80
2022/01/29 09:49:06;;;;;;;30.98;17.38;;;;;;;;;;5069483;28;20027;-80
2022/01/29 09:51:32;;;;;;;33.00;18.23;;;;;;;;;;5069340;28;20036;-80
2022/01/29 09:53:58;;;;;;;26.25;15.23;;;;;;;;;;5069517;28;20505;-80
2022/01/29 09:56:25;;;;;;;26.60;15.98;;;;;;;;;;5069720;28;20031;-81
2022/01/29 09:58:51;;;;;;;29.48;15.90;;;;;;;;;;5071882;28;20028;-80
2022/01/29 10:01:18;;;;;;;26.08;15.88;;;;;;;;;;5070124;28;20062;-80
2022/01/29 10:03:58;;;;;;;28.17;17.35;;;;;;;;;;5069227;28;20016;-79
2022/01/29 10:06:24;;;;;;;27.33;16.10;;;;;;;;;;5068794;28;20033;-80
2022/01/29 10:08:51;;;;;;;27.23;16.48;;;;;;;;;;5069136;28;20489;-80
2022/01/29 10:11:25;;;;;;;28.23;15.48;;;;;;;;;;5068736;28;20025;-80
2022/01/29 10:13:52;;;;;;;24.75;14.88;;;;;;;;;;5071792;28;20398;-80
2022/01/29 10:16:19;;;;;;;25.50;14.95;;;;;;;;;;5071122;28;20036;-80
2022/01/29 10:19:06;;;;;;;31.65;17.92;;;;;;;;;;5069499;28;20018;-80
2022/01/29 10:21:32;;;;;;;27.17;16.63;;;;;;;;;;5067496;28;20502;-80
2022/01/29 10:24:09;;;;;;;25.45;14.68;;;;;;;;;;5069111;28;20023;-80
2022/01/29 10:26:43;;;;;;;35.95;20.00;;;;;;;;;;5068961;28;20074;-80
2022/01/29 10:29:16;;;;;;;26.08;14.65;;;;;;;;;;5070229;28;20535;-80
2022/01/29 10:31:44;;;;;;;24.02;14.15;;;;;;;;;;5072729;28;20024;-80
2022/01/29 10:34:16;;;;;;;25.05;15.32;;;;;;;;;;5068758;28;20013;-80
2022/01/29 10:36:43;;;;;;;25.00;14.45;;;;;;;;;;5068721;28;20029;-80
2022/01/29 10:39:09;;;;;;;27.10;14.70;;;;;;;;;;5068788;28;20020;-80
2022/01/29 10:41:36;;;;;;;27.25;14.35;;;;;;;;;;5068699;28;20057;-80
2022/01/29 10:44:10;;;;;;;24.52;14.38;;;;;;;;;;5071293;28;20016;-80
2022/01/29 10:46:41;;;;;;;33.03;18.52;;;;;;;;;;5071548;28;20028;-80
2022/01/29 10:49:07;;;;;;;26.75;15.88;;;;;;;;;;5068261;28;20386;-80
2022/01/29 10:51:35;;;;;;;25.67;15.02;;;;;;;;;;5068702;28;20440;-80
2022/01/29 10:54:20;;;;;;;26.45;15.23;;;;;;;;;;5068548;28;20021;-80
2022/01/29 10:56:50;;;;;;;22.75;14.27;;;;;;;;;;5068834;28;20027;-80
2022/01/29 10:59:17;;;;;;;19.80;13.73;;;;;;;;;;5053435;28;20073;-80
2022/01/29 11:01:49;;;;;;;19.67;12.45;;;;;;;;;;5071963;28;20797;-80
2022/01/29 11:04:15;;;;;;;18.65;13.30;;;;;;;;;;5068661;28;20078;-80
2022/01/29 11:06:45;;;;;;;21.08;13.65;;;;;;;;;;5068776;28;20020;-79
2022/01/29 11:09:12;;;;;;;18.45;13.40;;;;;;;;;;5068494;28;20017;-80
2022/01/29 11:11:42;;;;;;;22.77;14.02;;;;;;;;;;5068637;28;20028;-80
2022/01/29 11:14:10;;;;;;;18.33;13.07;;;;;;;;;;5068389;28;20382;-80
2022/01/29 11:16:37;;;;;;;18.92;12.65;;;;;;;;;;5071122;28;20479;-79
2022/01/29 11:19:03;;;;;;;19.35;13.00;;;;;;;;;;5068162;28;20024;-79
2022/01/29 11:21:30;;;;;;;17.27;11.80;;;;;;;;;;5067039;28;20020;-80
2022/01/29 11:23:57;;;;;;;17.80;12.88;;;;;;;;;;5070487;28;20039;-79
2022/01/29 11:26:23;;;;;;;16.70;12.50;;;;;;;;;;5072363;28;20037;-80
2022/01/29 11:28:50;;;;;;;18.98;12.98;;;;;;;;;;5075370;28;20037;-80
2022/01/29 11:31:18;;;;;;;18.25;11.93;;;;;;;;;;5072873;28;20382;-80
2022/01/29 11:33:59;;;;;;;18.02;12.68;;;;;;;;;;5070463;28;20021;-80
2022/01/29 11:36:44;;;;;;;16.58;11.65;;;;;;;;;;5073498;28;20030;-80
2022/01/29 11:39:24;;;;;;;15.25;11.45;;;;;;;;;;5072049;28;20017;-79
2022/01/29 11:42:09;;;;;;;17.50;11.63;;;;;;;;;;5072040;28;20498;-80
2022/01/29 11:44:35;;;;;;;14.93;11.40;;;;;;;;;;5072021;28;20513;-80
2022/01/29 11:47:31;;;;;;;15.68;11.23;;;;;;;;;;5073577;28;20505;-80
2022/01/29 11:50:16;;;;;;;15.40;10.98;;;;;;;;;;5062792;28;20383;-80
2022/01/29 11:52:59;;;;;;;15.10;11.02;;;;;;;;;;5075341;28;20023;-80
2022/01/29 11:55:36;;;;;;;15.20;11.52;;;;;;;;;;5075216;28;20039;-80
2022/01/29 11:58:17;;;;;;;14.98;10.93;;;;;;;;;;5071611;28;20013;-80
2022/01/29 12:00:45;;;;;;;;;;;;;;;;;;5071603;28;20027;-79
2022/01/29 12:03:30;;;;;;;15.40;11.93;;;;;;;;;;5070280;28;19915;-79
2022/01/29 12:08:41;;;;;;;16.40;11.80;;;;;;;;;;5071608;28;20031;-79
2022/01/29 12:11:13;;;;;;;14.02;10.63;;;;;;;;;;5072987;28;20041;-80
2022/01/29 12:13:43;;;;;;;14.35;10.45;;;;;;;;;;5074235;28;20036;-79
2022/01/29 12:16:29;;;;;;;13.70;10.45;;;;;;;;;;5072143;28;20376;-80
2022/01/29 12:18:55;;;;;;;16.50;11.48;;;;;;;;;;5071234;28;20016;-80
2022/01/29 12:21:23;;;;;;;16.85;11.90;;;;;;;;;;5071507;28;20082;-79
2022/01/29 12:23:51;;;;;;;17.40;12.25;;;;;;;;;;5071254;28;20479;-79
2022/01/29 12:26:21;;;;;;;16.90;11.85;;;;;;;;;;5071389;28;20044;-80
2022/01/29 12:28:48;;;;;;;15.60;11.85;;;;;;;;;;5070738;28;20012;-79
2022/01/29 12:31:17;;;;;;;14.40;11.23;;;;;;;;;;5071396;28;20401;-79
2022/01/29 12:33:44;;;;;;;14.88;10.88;;;;;;;;;;5071085;28;20029;-79
2022/01/29 12:36:10;;;;;;;16.45;11.30;;;;;;;;;;5070045;28;20093;-79
2022/01/29 12:38:41;;;;;;;15.20;10.95;;;;;;;;;;5071105;28;20464;-79
2022/01/29 12:41:11;;;;;;;14.55;10.70;;;;;;;;;;5072236;28;20044;-79
2022/01/29 12:43:52;;;;;;;13.60;10.52;;;;;;;;;;5073894;28;20097;-79
2022/01/29 12:46:19;;;;;;;14.03;10.67;;;;;;;;;;5071436;28;20035;-79
2022/01/29 12:49:10;;;;;;;18.23;13.73;;;;;;;;;;5069596;28;20013;-79
2022/01/29 12:51:57;;;;;;;12.57;10.82;;;;;;;;;;5070551;28;20077;-79
2022/01/29 12:54:24;;;;;;;15.10;10.95;;;;;;;;;;5071952;28;20031;-79
2022/01/29 12:56:50;;;;;;;12.88;10.30;;;;;;;;;;5070555;28;20032;-79
2022/01/29 12:59:17;;;;;;;15.70;10.32;;;;;;;;;;5070665;28;20406;-79
2022/01/29 13:01:45;;;;;;;12.60;9.77;;;;;;;;;;5069438;28;20044;-79
2022/01/29 13:04:13;;;;;;;11.40;9.43;;;;;;;;;;5070310;28;20027;-79
2022/01/29 13:06:40;;;;;;;12.55;10.07;;;;;;;;;;5070427;28;20038;-77
2022/01/29 13:09:19;;;;;;;12.50;9.70;;;;;;;;;;5070310;28;20020;-78
2022/01/29 13:11:46;;;;;;;14.68;9.30;;;;;;;;;;5069335;28;20028;-79
2022/01/29 13:14:14;;;;;;;13.52;10.38;;;;;;;;;;5070676;28;20013;-78
2022/01/29 13:16:40;;;;;;;12.15;9.98;;;;;;;;;;5073174;28;20032;-78
2022/01/29 13:19:07;;;;;;;14.90;9.35;;;;;;;;;;5070108;28;20390;-79
2022/01/29 13:21:33;;;;;;;12.63;9.50;;;;;;;;;;5069785;28;20483;-79
2022/01/29 13:24:01;;;;;;;12.00;9.27;;;;;;;;;;5070012;28;20475;-79
2022/01/29 13:26:29;;;;;;;12.27;8.93;;;;;;;;;;5068696;28;20059;-79
2022/01/29 13:29:06;;;;;;;11.68;9.70;;;;;;;;;;5071993;28;20495;-79
2022/01/29 13:31:45;;;;;;;10.77;9.15;;;;;;;;;;5072011;28;20028;-79
2022/01/29 13:34:26;;;;;;;12.00;9.52;;;;;;;;;;5071204;28;20031;-78
2022/01/29 13:36:53;;;;;;;11.60;9.40;;;;;;;;;;5069612;28;20028;-78
2022/01/29 13:39:19;;;;;;;11.30;9.18;;;;;;;;;;5069907;28;20021;-78
2022/01/29 13:41:45;;;;;;;12.00;9.63;;;;;;;;;;5069808;28;20029;-79
2022/01/29 13:44:12;;;;;;;12.07;10.10;;;;;;;;;;5070245;28;20043;-79
2022/01/29 13:46:39;;;;;;;13.70;10.05;;;;;;;;;;5072337;28;20020;-78
2022/01/29 13:49:07;;;;;;;13.25;10.27;;;;;;;;;;5069493;28;20031;-79
2022/01/29 13:51:38;;;;;;;16.00;10.18;;;;;;;;;;5069356;28;20027;-79
2022/01/29 13:54:06;;;;;;;13.75;10.40;;;;;;;;;;5069429;28;20027;-78
2022/01/29 13:56:33;;;;;;;16.83;12.10;;;;;;;;;;5069399;28;20075;-78
2022/01/29 13:59:07;;;;;;;15.63;11.90;;;;;;;;;;5071361;28;20023;-78
2022/01/29 14:01:58;;;;;;;17.65;12.52;;;;;;;;;;5071319;28;20047;-79
2022/01/29 14:04:24;;;;;;;;;;;;;;;;;;5072621;28;20380;-78
2022/01/29 14:07:01;;;;;;;16.90;11.88;;;;;;;;;;5069463;28;19911;-78
2022/01/29 14:09:35;;;;;;;15.55;11.52;;;;;;;;;;5069065;28;20513;-78
2022/01/29 14:12:05;;;;;;;14.82;10.88;;;;;;;;;;5070104;28;20024;-78
2022/01/29 14:14:36;;;;;;;14.52;10.18;;;;;;;;;;5069356;28;20025;-77
2022/01/29 14:17:11;;;;;;;12.20;9.55;;;;;;;;;;5071476;28;20642;-78
2022/01/29 14:19:38;;;;;;;11.80;8.90;;;;;;;;;;5071565;28;20494;-78
2022/01/29 14:22:06;;;;;;;12.52;9.48;;;;;;;;;;5068734;28;20560;-77
2022/01/29 14:24:33;;;;;;;19.02;13.00;;;;;;;;;;5069390;28;20033;-77
2022/01/29 14:27:00;;;;;;;12.10;9.23;;;;;;;;;;5068448;28;20037;-78
2022/01/29 14:29:27;;;;;;;12.40;9.65;;;;;;;;;;5068952;28;20406;-78
2022/01/29 14:31:54;;;;;;;12.05;9.93;;;;;;;;;;5071596;28;20031;-78
2022/01/29 14:34:20;;;;;;;11.57;9.30;;;;;;;;;;5069799;28;20035;-78
2022/01/29 14:36:47;;;;;;;12.43;9.32;;;;;;;;;;5068911;28;20020;-78
2022/01/29 14:39:15;;;;;;;12.38;9.00;;;;;;;;;;5068832;28;20051;-78
2022/01/29 14:41:42;;;;;;;13.25;9.77;;;;;;;;;;5068419;28;20078;-78